Time;durP1;ratioP1;P1;durP2;ratioP2;P2;SDS_P1;SDS_P2;PMS_P1;PMS_P2;Temp;Humidity;BMP_temperature;BMP_pressure;BME280_temperature;BME280_humidity;BME280_pressure;Samples;Min_cycle;Max_cycle;Signal;HPM_P1;HPM_P2
2024/01/05 00:02:02;;;;;;;12.15;3.38;;;;;;;;;;5157960;27;20077;-55
2024/01/05 00:04:29;;;;;;;9.85;3.38;;;;;;;;;;5157784;27;20055;-55
2024/01/05 00:06:55;;;;;;;10.88;3.05;;;;;;;;;;5157932;27;20395;-57
2024/01/05 00:09:23;;;;;;;12.95;3.35;;;;;;;;;;5157499;27;20047;-57
2024/01/05 00:11:52;;;;;;;15.13;3.95;;;;;;;;;;5157788;27;20050;-57
2024/01/05 00:14:18;;;;;;;12.93;3.30;;;;;;;;;;5157316;27;20050;-57
2024/01/05 00:16:46;;;;;;;25.80;4.53;;;;;;;;;;5157390;27;20050;-57
2024/01/05 00:19:13;;;;;;;12.77;4.18;;;;;;;;;;5157405;27;20047;-57
2024/01/05 00:21:40;;;;;;;12.70;3.47;;;;;;;;;;5157592;27;20372;-57
2024/01/05 00:24:07;;;;;;;12.27;3.70;;;;;;;;;;5157338;27;20050;-57
2024/01/05 00:26:40;;;;;;;18.98;4.40;;;;;;;;;;5157339;27;20054;-57
2024/01/05 00:29:07;;;;;;;14.60;4.95;;;;;;;;;;5157643;27;20472;-57
2024/01/05 00:31:34;;;;;;;19.20;5.20;;;;;;;;;;5157598;27;20232;-57
2024/01/05 00:34:01;;;;;;;18.55;5.35;;;;;;;;;;5157469;27;20476;-57
2024/01/05 00:36:27;;;;;;;15.30;4.68;;;;;;;;;;5157140;27;20057;-58
2024/01/05 00:38:54;;;;;;;18.27;5.80;;;;;;;;;;5156888;27;20066;-57
2024/01/05 00:41:21;;;;;;;17.23;4.55;;;;;;;;;;5157395;27;20494;-57
2024/01/05 00:43:49;;;;;;;15.27;4.32;;;;;;;;;;5157009;27;20051;-56
2024/01/05 00:46:16;;;;;;;17.48;5.55;;;;;;;;;;5156871;27;20483;-58
2024/01/05 00:48:43;;;;;;;14.60;4.80;;;;;;;;;;5156721;27;20046;-57
2024/01/05 00:51:09;;;;;;;12.55;4.22;;;;;;;;;;5156809;27;20399;-55
2024/01/05 00:53:36;;;;;;;13.65;4.15;;;;;;;;;;5156916;27;20050;-57
2024/01/05 00:56:05;;;;;;;16.05;4.80;;;;;;;;;;5156937;27;20054;-56
2024/01/05 00:58:32;;;;;;;17.80;4.80;;;;;;;;;;5156872;27;20062;-57
2024/01/05 01:01:00;;;;;;;11.80;3.28;;;;;;;;;;5156773;27;20073;-56
2024/01/05 01:03:27;;;;;;;16.33;3.95;;;;;;;;;;5156440;27;20399;-56
2024/01/05 01:05:54;;;;;;;11.05;4.30;;;;;;;;;;5156698;27;20043;-57
2024/01/05 01:08:20;;;;;;;13.90;3.10;;;;;;;;;;5156880;27;20402;-57
2024/01/05 01:10:47;;;;;;;17.90;4.25;;;;;;;;;;5156259;27;20050;-58
2024/01/05 01:13:16;;;;;;;15.38;4.25;;;;;;;;;;5156573;27;20047;-57
2024/01/05 01:15:43;;;;;;;12.27;4.33;;;;;;;;;;5156255;27;20047;-58
2024/01/05 01:18:11;;;;;;;13.45;3.50;;;;;;;;;;5156370;27;20820;-57
2024/01/05 01:20:38;;;;;;;12.68;3.85;;;;;;;;;;5156566;27;20417;-57
2024/01/05 01:23:05;;;;;;;13.52;4.50;;;;;;;;;;5155693;27;20441;-57
2024/01/05 01:25:32;;;;;;;14.85;3.53;;;;;;;;;;5155707;27;20066;-57
2024/01/05 01:27:58;;;;;;;13.40;3.50;;;;;;;;;;5155841;27;20054;-55
2024/01/05 01:30:25;;;;;;;12.10;3.20;;;;;;;;;;5156084;27;20054;-57
2024/01/05 01:32:52;;;;;;;10.18;3.20;;;;;;;;;;5156103;27;20058;-57
2024/01/05 01:35:20;;;;;;;13.88;3.55;;;;;;;;;;5155949;27;20051;-57
2024/01/05 01:37:47;;;;;;;12.75;3.45;;;;;;;;;;5156230;27;20050;-57
2024/01/05 01:40:15;;;;;;;14.23;3.35;;;;;;;;;;5155795;27;20603;-57
2024/01/05 01:42:44;;;;;;;18.45;3.75;;;;;;;;;;5155984;27;20058;-57
2024/01/05 01:45:11;;;;;;;10.37;2.93;;;;;;;;;;5155809;27;20046;-57
2024/01/05 01:47:37;;;;;;;16.23;3.08;;;;;;;;;;5156125;27;20055;-57
2024/01/05 01:50:05;;;;;;;12.55;3.40;;;;;;;;;;5155625;27;20055;-57
2024/01/05 01:52:33;;;;;;;14.82;3.47;;;;;;;;;;5155088;27;20051;-58
2024/01/05 01:55:00;;;;;;;13.15;3.38;;;;;;;;;;5155699;27;20057;-56
2024/01/05 01:57:27;;;;;;;14.85;3.47;;;;;;;;;;5155620;27;20066;-57
2024/01/05 01:59:54;;;;;;;11.65;3.30;;;;;;;;;;5154841;27;20530;-57
2024/01/05 02:02:21;;;;;;;14.27;3.88;;;;;;;;;;5155401;27;20055;-57
2024/01/05 02:04:49;;;;;;;13.93;3.70;;;;;;;;;;5155332;27;20051;-57
2024/01/05 02:07:15;;;;;;;12.77;3.45;;;;;;;;;;5155324;27;20050;-57
2024/01/05 02:09:43;;;;;;;11.27;3.08;;;;;;;;;;5155344;27;20046;-57
2024/01/05 02:12:10;;;;;;;10.90;3.05;;;;;;;;;;5155498;27;20050;-57
2024/01/05 02:14:37;;;;;;;8.38;2.80;;;;;;;;;;5154903;27;20047;-58
2024/01/05 02:17:04;;;;;;;12.45;3.17;;;;;;;;;;5155445;27;20054;-57
2024/01/05 02:19:31;;;;;;;9.13;3.53;;;;;;;;;;5154932;27;20069;-57
2024/01/05 02:21:59;;;;;;;10.18;3.08;;;;;;;;;;5155153;27;20050;-56
2024/01/05 02:24:27;;;;;;;14.15;3.22;;;;;;;;;;5154954;27;20054;-57
2024/01/05 02:26:54;;;;;;;12.25;2.83;;;;;;;;;;5155075;27;20519;-57
2024/01/05 02:29:21;;;;;;;10.95;2.45;;;;;;;;;;5154497;27;20058;-56
2024/01/05 02:31:49;;;;;;;13.95;3.22;;;;;;;;;;5154905;27;20050;-57
2024/01/05 02:34:16;;;;;;;13.82;2.83;;;;;;;;;;5154735;27;20146;-57
2024/01/05 02:36:42;;;;;;;13.10;3.40;;;;;;;;;;5154465;27;20407;-57
2024/01/05 02:39:09;;;;;;;8.30;2.60;;;;;;;;;;5154608;27;20062;-57
2024/01/05 02:41:37;;;;;;;12.25;3.28;;;;;;;;;;5154518;27;20117;-57
2024/01/05 02:44:04;;;;;;;7.68;2.50;;;;;;;;;;5154370;27;20054;-56
2024/01/05 02:46:33;;;;;;;8.68;3.00;;;;;;;;;;5154546;27;20059;-57
2024/01/05 02:49:00;;;;;;;11.45;2.83;;;;;;;;;;5154780;27;20051;-56
2024/01/05 02:51:27;;;;;;;10.75;3.08;;;;;;;;;;5154067;27;20054;-56
2024/01/05 02:53:54;;;;;;;9.85;2.42;;;;;;;;;;5154553;27;20054;-56
2024/01/05 02:56:21;;;;;;;10.52;3.05;;;;;;;;;;5154258;27;20054;-57
2024/01/05 02:58:49;;;;;;;8.48;2.45;;;;;;;;;;5154236;27;20050;-56
2024/01/05 03:01:16;;;;;;;9.35;2.67;;;;;;;;;;5154550;27;20476;-56
2024/01/05 03:03:44;;;;;;;8.70;2.75;;;;;;;;;;5153996;27;20051;-56
2024/01/05 03:06:11;;;;;;;10.43;3.00;;;;;;;;;;5154298;27;20050;-55
2024/01/05 03:08:37;;;;;;;7.75;2.30;;;;;;;;;;5154108;27;20050;-57
2024/01/05 03:11:04;;;;;;;14.98;3.30;;;;;;;;;;5152872;27;20051;-54
2024/01/05 03:13:31;;;;;;;10.18;3.40;;;;;;;;;;5153983;27;20060;-56
2024/01/05 03:16:00;;;;;;;8.50;2.58;;;;;;;;;;5154107;27;20057;-54
2024/01/05 03:18:27;;;;;;;9.93;2.58;;;;;;;;;;5154294;27;20046;-57
2024/01/05 03:20:53;;;;;;;8.65;2.53;;;;;;;;;;5154150;27;20050;-56
2024/01/05 03:23:20;;;;;;;10.02;3.13;;;;;;;;;;5154037;27;20054;-55
2024/01/05 03:25:47;;;;;;;6.43;2.20;;;;;;;;;;5153775;27;20476;-56
2024/01/05 03:28:14;;;;;;;12.57;3.45;;;;;;;;;;5153617;27;20051;-57
2024/01/05 03:30:42;;;;;;;10.20;2.78;;;;;;;;;;5153950;27;20050;-56
2024/01/05 03:33:10;;;;;;;10.20;2.85;;;;;;;;;;5153868;27;20054;-55
2024/01/05 03:35:37;;;;;;;10.15;2.80;;;;;;;;;;5153957;27;20050;-57
2024/01/05 03:38:04;;;;;;;10.35;2.40;;;;;;;;;;5153956;27;20055;-56
2024/01/05 03:40:30;;;;;;;7.82;2.50;;;;;;;;;;5153646;27;20055;-55
2024/01/05 03:42:57;;;;;;;9.70;2.50;;;;;;;;;;5154125;27;20073;-56
2024/01/05 03:45:24;;;;;;;9.15;2.47;;;;;;;;;;5154021;27;20054;-57
2024/01/05 03:47:51;;;;;;;8.02;2.90;;;;;;;;;;5153927;27;20058;-57
2024/01/05 03:50:19;;;;;;;11.30;2.60;;;;;;;;;;5153745;27;20057;-54
2024/01/05 03:52:46;;;;;;;10.57;2.70;;;;;;;;;;5153404;27;20059;-56
2024/01/05 03:55:13;;;;;;;11.90;3.22;;;;;;;;;;5153675;27;20051;-57
2024/01/05 03:57:39;;;;;;;9.63;2.60;;;;;;;;;;5153499;27;20054;-55
2024/01/05 04:00:07;;;;;;;8.18;2.22;;;;;;;;;;5153742;27;20050;-57
2024/01/05 04:02:34;;;;;;;10.10;2.88;;;;;;;;;;5154009;27;20061;-57
2024/01/05 04:05:01;;;;;;;8.95;2.63;;;;;;;;;;5153740;27;20074;-57
2024/01/05 04:07:29;;;;;;;9.77;2.67;;;;;;;;;;5153611;27;20368;-57
2024/01/05 04:09:56;;;;;;;9.25;3.10;;;;;;;;;;5153420;27;20495;-57
2024/01/05 04:12:23;;;;;;;10.63;3.25;;;;;;;;;;5153876;27;20057;-57
2024/01/05 04:14:49;;;;;;;8.38;2.28;;;;;;;;;;5153179;27;20043;-58
2024/01/05 04:17:16;;;;;;;9.20;2.55;;;;;;;;;;5153861;27;20480;-57
2024/01/05 04:19:43;;;;;;;11.55;2.97;;;;;;;;;;5153611;27;20381;-57
2024/01/05 04:22:10;;;;;;;8.13;2.70;;;;;;;;;;5154607;27;20054;-58
2024/01/05 04:24:38;;;;;;;10.05;2.83;;;;;;;;;;5157197;27;20050;-58
2024/01/05 04:27:05;;;;;;;7.38;2.70;;;;;;;;;;5157794;27;20472;-58
2024/01/05 04:29:32;;;;;;;4.88;2.60;;;;;;;;;;5157436;27;20053;-58
2024/01/05 04:31:58;;;;;;;7.13;2.40;;;;;;;;;;5157310;27;20053;-58
2024/01/05 04:34:25;;;;;;;8.88;2.70;;;;;;;;;;5156302;27;20051;-58
2024/01/05 04:36:52;;;;;;;8.45;3.05;;;;;;;;;;5152223;27;20047;-58
2024/01/05 04:39:19;;;;;;;7.20;2.30;;;;;;;;;;5136103;27;20047;-58
2024/01/05 04:41:48;;;;;;;8.82;2.58;;;;;;;;;;5136501;27;20059;-58
2024/01/05 04:44:15;;;;;;;13.47;3.47;;;;;;;;;;5136013;27;20055;-58
2024/01/05 04:46:41;;;;;;;7.32;2.50;;;;;;;;;;5136194;27;20051;-58
2024/01/05 04:49:09;;;;;;;8.50;2.53;;;;;;;;;;5136454;27;20051;-59
2024/01/05 04:51:35;;;;;;;8.90;2.70;;;;;;;;;;5135826;27;20051;-59
2024/01/05 04:54:03;;;;;;;8.35;2.67;;;;;;;;;;5136039;27;20507;-58
2024/01/05 04:56:30;;;;;;;10.13;3.00;;;;;;;;;;5135950;27;20050;-58
2024/01/05 04:58:58;;;;;;;8.77;2.85;;;;;;;;;;5135935;27;20051;-59
2024/01/05 05:01:25;;;;;;;6.25;2.47;;;;;;;;;;5135872;27;20051;-59
2024/01/05 05:03:52;;;;;;;10.45;2.80;;;;;;;;;;5135693;27;20416;-59
2024/01/05 05:06:18;;;;;;;8.68;2.80;;;;;;;;;;5135398;27;20051;-59
2024/01/05 05:08:45;;;;;;;10.20;2.72;;;;;;;;;;5135559;27;20051;-59
2024/01/05 05:11:12;;;;;;;6.95;3.10;;;;;;;;;;5135620;27;20070;-59
2024/01/05 05:13:39;;;;;;;7.13;2.13;;;;;;;;;;5135867;27;20439;-60
2024/01/05 05:16:08;;;;;;;6.63;2.63;;;;;;;;;;5135865;27;20061;-59
2024/01/05 05:18:35;;;;;;;7.13;2.42;;;;;;;;;;5135544;27;20051;-60
2024/01/05 05:21:01;;;;;;;9.50;2.50;;;;;;;;;;5135499;27;20408;-59
2024/01/05 05:23:28;;;;;;;8.82;2.55;;;;;;;;;;5135433;27;20069;-59
2024/01/05 05:25:55;;;;;;;9.00;2.67;;;;;;;;;;5155706;27;20047;-59
2024/01/05 05:28:22;;;;;;;10.52;3.22;;;;;;;;;;5155849;27;20054;-59
2024/01/05 05:30:49;;;;;;;7.63;3.03;;;;;;;;;;5155986;27;20047;-60
2024/01/05 05:33:17;;;;;;;6.05;2.25;;;;;;;;;;5155321;27;20050;-60
2024/01/05 05:35:44;;;;;;;7.78;2.60;;;;;;;;;;5155677;27;20047;-60
2024/01/05 05:38:11;;;;;;;8.02;2.58;;;;;;;;;;5155645;27;20050;-60
2024/01/05 05:40:38;;;;;;;8.00;2.80;;;;;;;;;;5155574;27;20515;-59
2024/01/05 05:43:05;;;;;;;9.13;2.50;;;;;;;;;;5155654;27;20475;-60
2024/01/05 05:45:32;;;;;;;9.75;2.47;;;;;;;;;;5155616;27;20442;-60
2024/01/05 05:47:59;;;;;;;8.80;2.50;;;;;;;;;;5155305;27;20510;-59
2024/01/05 05:50:27;;;;;;;8.40;2.08;;;;;;;;;;5155576;27;20058;-60
2024/01/05 05:52:54;;;;;;;5.97;2.15;;;;;;;;;;5155171;27;20055;-60
2024/01/05 05:55:21;;;;;;;7.82;2.22;;;;;;;;;;5155280;27;20054;-59
2024/01/05 05:57:48;;;;;;;7.38;2.22;;;;;;;;;;5155717;27;20062;-59
2024/01/05 06:00:15;;;;;;;6.65;2.40;;;;;;;;;;5155401;27;20407;-59
2024/01/05 06:02:41;;;;;;;5.97;2.40;;;;;;;;;;5155651;27;20054;-60
2024/01/05 06:05:09;;;;;;;6.40;2.33;;;;;;;;;;5155238;27;20062;-60
2024/01/05 06:07:37;;;;;;;5.40;2.30;;;;;;;;;;5154993;27;20054;-60
2024/01/05 06:10:05;;;;;;;8.00;2.45;;;;;;;;;;5155312;27;20403;-59
2024/01/05 06:12:31;;;;;;;10.93;1.85;;;;;;;;;;5155360;27;20051;-59
2024/01/05 06:14:58;;;;;;;7.53;2.53;;;;;;;;;;5155106;27;20058;-59
2024/01/05 06:17:25;;;;;;;5.50;2.40;;;;;;;;;;5155218;27;20058;-59
2024/01/05 06:19:52;;;;;;;6.38;2.08;;;;;;;;;;5154747;27;20146;-59
2024/01/05 06:22:18;;;;;;;5.18;2.15;;;;;;;;;;5154730;27;20057;-59
2024/01/05 06:24:46;;;;;;;8.35;2.70;;;;;;;;;;5154643;27;20053;-58
2024/01/05 06:27:13;;;;;;;7.00;1.83;;;;;;;;;;5153997;27;20058;-59
2024/01/05 06:29:40;;;;;;;8.88;2.58;;;;;;;;;;5154333;27;20046;-59
2024/01/05 06:32:08;;;;;;;6.30;2.20;;;;;;;;;;5154489;27;20503;-59
2024/01/05 06:34:35;;;;;;;11.18;3.08;;;;;;;;;;5154481;27;20050;-59
2024/01/05 06:37:01;;;;;;;6.85;2.55;;;;;;;;;;5154432;27;20053;-59
2024/01/05 06:39:28;;;;;;;7.05;2.00;;;;;;;;;;5153783;27;20054;-58
2024/01/05 06:41:56;;;;;;;6.93;2.08;;;;;;;;;;5154468;27;20500;-59
2024/01/05 06:44:24;;;;;;;8.70;2.47;;;;;;;;;;5154270;27;20050;-59
2024/01/05 06:46:51;;;;;;;6.60;1.90;;;;;;;;;;5154156;27;20047;-59
2024/01/05 06:49:17;;;;;;;5.68;2.10;;;;;;;;;;5154531;27;20054;-60
2024/01/05 06:51:44;;;;;;;6.00;1.98;;;;;;;;;;5153787;27;20058;-58
2024/01/05 06:54:12;;;;;;;6.55;2.20;;;;;;;;;;5154105;27;20054;-58
2024/01/05 06:56:42;;;;;;;6.32;1.98;;;;;;;;;;5154376;27;20500;-58
2024/01/05 06:59:10;;;;;;;7.00;2.15;;;;;;;;;;5153877;27;20054;-58
2024/01/05 07:01:37;;;;;;;5.53;2.33;;;;;;;;;;5154114;27;20055;-58
2024/01/05 07:04:04;;;;;;;8.13;2.05;;;;;;;;;;5154307;27;20061;-58
2024/01/05 07:06:31;;;;;;;7.53;2.17;;;;;;;;;;5153852;27;20054;-58
2024/01/05 07:08:58;;;;;;;5.97;1.90;;;;;;;;;;5153645;27;20054;-58
2024/01/05 07:11:25;;;;;;;5.78;2.20;;;;;;;;;;5153981;27;20050;-58
2024/01/05 07:13:52;;;;;;;7.05;2.15;;;;;;;;;;5154070;27;20054;-59
2024/01/05 07:16:21;;;;;;;5.47;2.45;;;;;;;;;;5154106;27;20043;-58
2024/01/05 07:18:48;;;;;;;5.65;1.80;;;;;;;;;;5154034;27;20057;-58
2024/01/05 07:21:15;;;;;;;7.18;1.73;;;;;;;;;;5153626;27;20078;-58
2024/01/05 07:23:42;;;;;;;5.55;1.83;;;;;;;;;;5153818;27;20062;-58
2024/01/05 07:26:09;;;;;;;6.22;1.88;;;;;;;;;;5153763;27;20051;-58
2024/01/05 07:28:37;;;;;;;6.50;1.85;;;;;;;;;;5153906;27;20459;-58
2024/01/05 07:31:05;;;;;;;10.20;2.03;;;;;;;;;;5153978;27;20050;-58
2024/01/05 07:33:33;;;;;;;7.38;1.92;;;;;;;;;;5154025;27;20051;-58
2024/01/05 07:36:04;;;;;;;4.63;1.45;;;;;;;;;;5154142;27;20464;-58
2024/01/05 07:38:31;;;;;;;7.35;1.58;;;;;;;;;;5153463;27;20058;-58
2024/01/05 07:40:58;;;;;;;4.78;1.92;;;;;;;;;;5153883;27;20054;-58
2024/01/05 07:43:25;;;;;;;5.72;1.75;;;;;;;;;;5153152;27;20058;-58
2024/01/05 07:45:52;;;;;;;3.42;1.50;;;;;;;;;;5153759;27;20054;-58
2024/01/05 07:48:19;;;;;;;4.35;1.45;;;;;;;;;;5153518;27;20043;-58
2024/01/05 07:50:48;;;;;;;4.40;1.77;;;;;;;;;;5153216;27;20070;-58
2024/01/05 07:53:14;;;;;;;4.68;1.60;;;;;;;;;;5153326;27;20071;-58
2024/01/05 07:55:41;;;;;;;4.75;1.60;;;;;;;;;;5153461;27;20055;-59
2024/01/05 07:58:08;;;;;;;7.78;1.77;;;;;;;;;;5156272;27;20072;-58
2024/01/05 08:00:35;;;;;;;4.05;1.40;;;;;;;;;;5157524;27;20066;-59
2024/01/05 08:03:05;;;;;;;5.00;1.35;;;;;;;;;;5157655;27;20057;-58
2024/01/05 08:05:31;;;;;;;5.32;2.00;;;;;;;;;;5158012;27;20073;-59
2024/01/05 08:08:00;;;;;;;5.43;1.60;;;;;;;;;;5157182;27;20043;-58
2024/01/05 08:10:26;;;;;;;4.22;1.55;;;;;;;;;;5157814;27;20407;-58
2024/01/05 08:12:54;;;;;;;4.15;1.65;;;;;;;;;;5157646;27;20380;-59
2024/01/05 08:15:20;;;;;;;4.85;1.58;;;;;;;;;;5157117;27;20050;-58
2024/01/05 08:17:47;;;;;;;3.88;1.50;;;;;;;;;;5157237;27;20043;-59
2024/01/05 08:20:15;;;;;;;5.68;2.00;;;;;;;;;;5157376;27;20055;-59
2024/01/05 08:22:41;;;;;;;4.07;1.77;;;;;;;;;;5157658;27;20050;-58
2024/01/05 08:25:10;;;;;;;5.45;2.00;;;;;;;;;;5157164;27;20058;-59
2024/01/05 08:27:36;;;;;;;4.28;1.60;;;;;;;;;;5157412;27;20047;-59
2024/01/05 08:30:04;;;;;;;7.57;2.15;;;;;;;;;;5157140;27;20054;-59
2024/01/05 08:32:31;;;;;;;4.20;1.83;;;;;;;;;;5157549;27;20476;-59
2024/01/05 08:34:58;;;;;;;6.30;1.50;;;;;;;;;;5156852;27;20050;-59
2024/01/05 08:37:24;;;;;;;2.67;1.30;;;;;;;;;;5157214;27;20399;-59
2024/01/05 08:39:51;;;;;;;3.67;1.70;;;;;;;;;;5156690;27;20051;-59
2024/01/05 08:42:19;;;;;;;4.80;1.33;;;;;;;;;;5157122;27;20061;-59
2024/01/05 08:44:46;;;;;;;7.55;1.85;;;;;;;;;;5157256;27;20502;-59
2024/01/05 08:47:13;;;;;;;5.90;1.67;;;;;;;;;;5157027;27;20053;-58
2024/01/05 08:49:40;;;;;;;4.63;1.85;;;;;;;;;;5156472;27;20487;-59
2024/01/05 08:52:07;;;;;;;5.00;1.48;;;;;;;;;;5156313;27;20389;-59
2024/01/05 08:54:34;;;;;;;4.13;1.48;;;;;;;;;;5156694;27;20511;-59
2024/01/05 08:57:01;;;;;;;5.07;1.77;;;;;;;;;;5156822;27;20047;-59
2024/01/05 08:59:29;;;;;;;3.70;1.42;;;;;;;;;;5156695;27;20077;-59
2024/01/05 09:01:55;;;;;;;3.90;1.33;;;;;;;;;;5156764;27;20479;-59
2024/01/05 09:04:22;;;;;;;3.50;1.38;;;;;;;;;;5156502;27;20061;-59
2024/01/05 09:06:48;;;;;;;3.92;1.40;;;;;;;;;;5156341;27;20049;-59
2024/01/05 09:09:15;;;;;;;4.65;1.35;;;;;;;;;;5156006;27;20077;-58
2024/01/05 09:11:42;;;;;;;5.57;1.45;;;;;;;;;;5156400;27;20051;-59
2024/01/05 09:14:09;;;;;;;6.45;1.70;;;;;;;;;;5156444;27;20062;-59
2024/01/05 09:16:37;;;;;;;4.65;1.80;;;;;;;;;;5156390;27;20506;-59
2024/01/05 09:19:04;;;;;;;3.00;1.45;;;;;;;;;;5156276;27;20047;-59
2024/01/05 09:21:31;;;;;;;5.30;1.77;;;;;;;;;;5156348;27;20476;-59
2024/01/05 09:23:58;;;;;;;6.35;1.80;;;;;;;;;;5156342;27;20137;-59
2024/01/05 09:26:25;;;;;;;4.72;1.48;;;;;;;;;;5155995;27;20057;-59
2024/01/05 09:28:51;;;;;;;4.95;1.67;;;;;;;;;;5156177;27;20051;-59
2024/01/05 09:31:18;;;;;;;4.50;1.42;;;;;;;;;;5155844;27;20055;-59
2024/01/05 09:33:49;;;;;;;5.82;1.73;;;;;;;;;;5155964;27;20054;-59
2024/01/05 09:36:16;;;;;;;2.88;1.27;;;;;;;;;;5155929;27;20051;-59
2024/01/05 09:38:43;;;;;;;3.88;1.75;;;;;;;;;;5155727;27;20342;-60
2024/01/05 09:41:12;;;;;;;3.17;1.30;;;;;;;;;;5155674;27;20058;-59
2024/01/05 09:43:41;;;;;;;3.55;1.27;;;;;;;;;;5155560;27;20050;-59
2024/01/05 09:46:08;;;;;;;3.10;1.05;;;;;;;;;;5155799;27;20498;-59
2024/01/05 09:48:35;;;;;;;5.43;1.30;;;;;;;;;;5155561;27;20057;-59
2024/01/05 09:51:04;;;;;;;4.50;1.30;;;;;;;;;;5155328;27;20128;-59
2024/01/05 09:53:31;;;;;;;2.58;0.90;;;;;;;;;;5155084;27;20054;-59
2024/01/05 09:55:58;;;;;;;2.45;1.20;;;;;;;;;;5155822;27;20060;-59
2024/01/05 09:58:26;;;;;;;3.92;1.23;;;;;;;;;;5155588;27;20055;-59
2024/01/05 10:00:54;;;;;;;3.63;1.10;;;;;;;;;;5155273;27;20054;-59
2024/01/05 10:03:23;;;;;;;4.25;1.02;;;;;;;;;;5154877;27;20054;-59
2024/01/05 10:05:50;;;;;;;3.17;0.90;;;;;;;;;;5154840;27;20054;-58
2024/01/05 10:08:18;;;;;;;2.97;0.95;;;;;;;;;;5154908;27;20055;-59
2024/01/05 10:10:46;;;;;;;3.92;1.08;;;;;;;;;;5155178;27;20480;-59
2024/01/05 10:13:13;;;;;;;1.98;0.73;;;;;;;;;;5154966;27;20384;-58
2024/01/05 10:15:51;;;;;;;2.83;0.90;;;;;;;;;;5154420;27;20427;-58
2024/01/05 10:18:18;;;;;;;3.03;0.80;;;;;;;;;;5155106;27;20054;-59
2024/01/05 10:20:45;;;;;;;1.67;0.90;;;;;;;;;;5154488;27;20051;-59
2024/01/05 10:23:13;;;;;;;1.67;0.90;;;;;;;;;;5154810;27;20475;-59
2024/01/05 10:25:41;;;;;;;1.48;0.70;;;;;;;;;;5154897;27;20404;-58
2024/01/05 10:28:20;;;;;;;1.75;0.68;;;;;;;;;;5154539;27;20047;-58
2024/01/05 10:30:47;;;;;;;1.63;0.80;;;;;;;;;;5154705;27;20059;-60
2024/01/05 10:33:16;;;;;;;2.65;1.10;;;;;;;;;;5154215;27;20324;-60
2024/01/05 10:35:42;;;;;;;1.77;0.60;;;;;;;;;;5154352;27;20043;-59
2024/01/05 10:38:11;;;;;;;1.63;0.50;;;;;;;;;;5154825;27;20475;-58
2024/01/05 10:40:38;;;;;;;2.45;0.70;;;;;;;;;;5154515;27;20051;-59
2024/01/05 10:43:09;;;;;;;2.63;0.70;;;;;;;;;;5154319;27;20050;-59
2024/01/05 10:45:37;;;;;;;2.22;0.85;;;;;;;;;;5154546;27;20117;-59
2024/01/05 10:48:05;;;;;;;1.00;0.45;;;;;;;;;;5154027;27;20054;-59
2024/01/05 10:50:33;;;;;;;1.40;0.40;;;;;;;;;;5154089;27;20050;-59
2024/01/05 10:53:00;;;;;;;1.65;0.60;;;;;;;;;;5154001;27;20059;-59
2024/01/05 10:55:27;;;;;;;1.70;0.60;;;;;;;;;;5154641;27;20065;-59
2024/01/05 10:57:54;;;;;;;1.27;0.40;;;;;;;;;;5154310;27;20077;-59
2024/01/05 11:00:24;;;;;;;1.38;0.40;;;;;;;;;;5154169;27;20357;-59
2024/01/05 11:02:52;;;;;;;0.93;0.40;;;;;;;;;;5154533;27;20046;-59
2024/01/05 11:05:18;;;;;;;1.25;0.50;;;;;;;;;;5154104;27;20407;-58
2024/01/05 11:07:47;;;;;;;1.42;0.43;;;;;;;;;;5154383;27;20053;-59
2024/01/05 11:10:22;;;;;;;0.85;0.30;;;;;;;;;;5154067;27;20054;-59
2024/01/05 11:12:55;;;;;;;0.98;0.40;;;;;;;;;;5154160;27;20051;-59
2024/01/05 11:15:31;;;;;;;1.77;0.60;;;;;;;;;;5154163;27;20058;-59
2024/01/05 11:18:13;;;;;;;1.55;0.47;;;;;;;;;;5153675;27;20054;-58
2024/01/05 11:20:49;;;;;;;1.67;0.50;;;;;;;;;;5140574;27;20054;-59
2024/01/05 11:23:16;;;;;;;1.13;0.50;;;;;;;;;;5154235;27;20522;-59
2024/01/05 11:25:44;;;;;;;2.47;0.55;;;;;;;;;;5153457;27;20119;-59
2024/01/05 11:28:32;;;;;;;1.17;0.40;;;;;;;;;;5153729;27;20384;-59
2024/01/05 11:31:00;;;;;;;1.40;0.70;;;;;;;;;;5153735;27;20062;-59
2024/01/05 11:33:46;;;;;;;1.90;0.63;;;;;;;;;;5157397;27;20046;-59
2024/01/05 11:36:13;;;;;;;1.15;0.50;;;;;;;;;;5157886;27;20051;-59
2024/01/05 11:38:43;;;;;;;2.05;0.50;;;;;;;;;;5158250;27;20479;-59
2024/01/05 11:41:16;;;;;;;2.25;0.57;;;;;;;;;;5158014;27;20050;-60
2024/01/05 11:43:42;;;;;;;1.50;0.47;;;;;;;;;;5157788;27;20062;-59
2024/01/05 11:46:11;;;;;;;1.90;0.50;;;;;;;;;;5158171;27;20486;-59
2024/01/05 11:48:48;;;;;;;1.27;0.43;;;;;;;;;;5157792;27;20058;-59
2024/01/05 11:51:15;;;;;;;1.13;0.60;;;;;;;;;;5157527;27;20256;-59
2024/01/05 11:53:44;;;;;;;1.35;0.55;;;;;;;;;;5157906;27;20434;-59
2024/01/05 11:56:14;;;;;;;1.33;0.60;;;;;;;;;;5157746;27;20046;-59
2024/01/05 11:58:43;;;;;;;0.73;0.45;;;;;;;;;;5157892;27;20116;-58
2024/01/05 12:01:11;;;;;;;1.40;0.50;;;;;;;;;;5157253;27;20063;-58
2024/01/05 12:03:39;;;;;;;3.88;0.50;;;;;;;;;;5157355;27;20163;-58
2024/01/05 12:06:06;;;;;;;1.40;0.50;;;;;;;;;;5157473;27;20050;-59
2024/01/05 12:08:34;;;;;;;1.63;0.55;;;;;;;;;;5157261;27;20047;-59
2024/01/05 12:11:02;;;;;;;1.67;0.57;;;;;;;;;;5157298;27;20047;-58
2024/01/05 12:13:30;;;;;;;1.00;0.50;;;;;;;;;;5157301;27;20053;-58
2024/01/05 12:15:57;;;;;;;1.20;0.80;;;;;;;;;;5157230;27;20472;-59
2024/01/05 12:18:26;;;;;;;1.80;0.70;;;;;;;;;;5157694;27;20400;-58
2024/01/05 12:20:54;;;;;;;1.48;0.40;;;;;;;;;;5156900;27;20388;-58
2024/01/05 12:23:20;;;;;;;3.20;0.70;;;;;;;;;;5156755;27;20069;-58
2024/01/05 12:25:57;;;;;;;1.00;0.50;;;;;;;;;;5156571;27;20483;-59
2024/01/05 12:28:24;;;;;;;1.45;0.60;;;;;;;;;;5157326;27;20057;-59
2024/01/05 12:30:51;;;;;;;1.80;0.60;;;;;;;;;;5156911;27;20055;-58
2024/01/05 12:33:18;;;;;;;2.13;0.65;;;;;;;;;;5156792;27;20403;-58
2024/01/05 12:35:48;;;;;;;1.40;0.60;;;;;;;;;;5156744;27;20381;-58
2024/01/05 12:38:21;;;;;;;1.70;0.82;;;;;;;;;;5157176;27;20051;-59
2024/01/05 12:40:48;;;;;;;1.88;0.88;;;;;;;;;;5156949;27;20069;-59
2024/01/05 12:43:16;;;;;;;1.92;0.95;;;;;;;;;;5156303;27;20407;-59
2024/01/05 12:45:43;;;;;;;1.70;0.70;;;;;;;;;;5156624;27;20430;-58
2024/01/05 12:48:11;;;;;;;2.03;0.70;;;;;;;;;;5156699;27;20124;-59
2024/01/05 12:50:38;;;;;;;1.25;0.50;;;;;;;;;;5156210;27;20051;-59
2024/01/05 12:53:18;;;;;;;2.00;0.70;;;;;;;;;;5156160;27;20058;-59
2024/01/05 12:55:44;;;;;;;1.83;0.75;;;;;;;;;;5156179;27;20062;-58
2024/01/05 12:58:11;;;;;;;1.60;0.60;;;;;;;;;;5156594;27;20047;-59
2024/01/05 13:00:40;;;;;;;1.42;0.50;;;;;;;;;;5156249;27;20061;-59
2024/01/05 13:03:13;;;;;;;1.73;0.60;;;;;;;;;;5156300;27;20051;-58
2024/01/05 13:05:40;;;;;;;1.27;0.63;;;;;;;;;;5156240;27;20051;-59
2024/01/05 13:08:05;;;;;;;1.40;0.70;;;;;;;;;;5155968;27;20066;-59
2024/01/05 13:10:34;;;;;;;1.60;0.60;;;;;;;;;;5156075;27;20066;-58
2024/01/05 13:13:01;;;;;;;2.00;0.75;;;;;;;;;;5156476;27;20399;-59
2024/01/05 13:15:29;;;;;;;1.35;0.75;;;;;;;;;;5156001;27;20418;-59
2024/01/05 13:17:57;;;;;;;1.63;0.70;;;;;;;;;;5156549;27;20050;-59
2024/01/05 13:20:24;;;;;;;1.52;0.63;;;;;;;;;;5156187;27;20050;-59
2024/01/05 13:22:51;;;;;;;1.17;0.50;;;;;;;;;;5156578;27;20491;-59
2024/01/05 13:25:18;;;;;;;1.65;0.63;;;;;;;;;;5156164;27;20376;-59
2024/01/05 13:27:47;;;;;;;1.42;0.60;;;;;;;;;;5139325;27;20055;-58
2024/01/05 13:30:14;;;;;;;1.60;0.90;;;;;;;;;;5156059;27;20062;-58
2024/01/05 13:32:42;;;;;;;1.33;0.70;;;;;;;;;;5155946;27;20062;-59
2024/01/05 13:35:09;;;;;;;2.25;0.80;;;;;;;;;;5156119;27;20065;-58
2024/01/05 13:37:36;;;;;;;1.63;0.70;;;;;;;;;;5156132;27;20061;-58
2024/01/05 13:40:03;;;;;;;1.33;0.52;;;;;;;;;;5155294;27;20042;-59
2024/01/05 13:42:30;;;;;;;2.30;0.70;;;;;;;;;;5155926;27;20058;-59
2024/01/05 13:44:59;;;;;;;2.72;0.80;;;;;;;;;;5156040;27;20058;-59
2024/01/05 13:47:27;;;;;;;1.77;0.80;;;;;;;;;;5155486;27;20080;-59
2024/01/05 13:49:54;;;;;;;3.05;1.00;;;;;;;;;;5155523;27;20057;-59
2024/01/05 13:52:21;;;;;;;2.85;0.70;;;;;;;;;;5155130;27;20054;-58
2024/01/05 13:54:48;;;;;;;2.33;0.95;;;;;;;;;;5154631;27;20399;-58
2024/01/05 13:57:15;;;;;;;3.42;1.00;;;;;;;;;;5155648;27;20055;-59
2024/01/05 13:59:42;;;;;;;2.13;0.75;;;;;;;;;;5155569;27;20054;-59
2024/01/05 14:02:10;;;;;;;3.20;0.80;;;;;;;;;;5155466;27;20051;-59
2024/01/05 14:04:37;;;;;;;2.55;0.80;;;;;;;;;;5155037;27;20050;-59
2024/01/05 14:07:04;;;;;;;3.10;0.90;;;;;;;;;;5155285;27;20051;-59
2024/01/05 14:09:31;;;;;;;2.58;1.20;;;;;;;;;;5155233;27;20055;-58
2024/01/05 14:11:58;;;;;;;2.75;1.02;;;;;;;;;;5155275;27;20053;-59
2024/01/05 14:14:24;;;;;;;2.55;1.00;;;;;;;;;;5155189;27;20057;-58
2024/01/05 14:16:52;;;;;;;2.40;0.90;;;;;;;;;;5154840;27;20051;-58
2024/01/05 14:19:21;;;;;;;2.55;1.08;;;;;;;;;;5155220;27;20046;-58
2024/01/05 14:21:47;;;;;;;2.78;0.90;;;;;;;;;;5154958;27;20240;-59
2024/01/05 14:24:14;;;;;;;2.67;1.05;;;;;;;;;;5154697;27;20050;-58
2024/01/05 14:26:44;;;;;;;2.70;1.20;;;;;;;;;;5154596;27;20050;-58
2024/01/05 14:29:11;;;;;;;4.65;1.38;;;;;;;;;;5154913;27;20054;-59
2024/01/05 14:31:38;;;;;;;2.83;1.00;;;;;;;;;;5154708;27;20452;-58
2024/01/05 14:34:04;;;;;;;2.40;0.90;;;;;;;;;;5154849;27;20483;-58
2024/01/05 14:36:32;;;;;;;2.50;0.98;;;;;;;;;;5155012;27;20055;-58
2024/01/05 14:38:59;;;;;;;3.85;0.82;;;;;;;;;;5154677;27;20054;-58
2024/01/05 14:41:26;;;;;;;4.80;1.27;;;;;;;;;;5154524;27;20050;-59
2024/01/05 14:43:54;;;;;;;5.22;1.13;;;;;;;;;;5154460;27;20544;-58